Time;durP1;ratioP1;P1;durP2;ratioP2;P2;SDS_P1;SDS_P2;PMS_P1;PMS_P2;Temp;Humidity;BMP_temperature;BMP_pressure;BME280_temperature;BME280_humidity;BME280_pressure;Samples;Min_cycle;Max_cycle;Signal;HPM_P1;HPM_P2
2022/02/10 00:20:05;;;;;;;29.85;17.85;;;2.00;99.90;;;;;;4902859;29;20040;-80
2022/02/10 00:23:03;;;;;;;29.08;16.65;;;2.00;99.90;;;;;;4900886;29;20036;-78
2022/02/10 00:36:04;;;;;;;18.30;10.63;;;1.90;99.90;;;;;;4900465;29;20084;-78
2022/02/10 00:38:33;;;;;;;18.40;10.23;;;1.90;99.90;;;;;;4887935;29;20052;-78
2022/02/10 00:40:59;;;;;;;16.17;9.43;;;1.90;99.90;;;;;;4898425;29;20040;-79
2022/02/10 00:43:25;;;;;;;;;;;2.00;99.90;;;;;;4897976;29;20024;-78
2022/02/10 00:45:51;;;;;;;15.85;8.25;;;2.00;99.90;;;;;;4880535;29;19934;-77
2022/02/10 00:48:17;;;;;;;16.77;8.50;;;2.00;99.90;;;;;;4897595;29;20032;-78
2022/02/10 00:50:45;;;;;;;15.85;8.18;;;2.00;99.90;;;;;;4880027;29;20044;-79
2022/02/10 00:53:19;;;;;;;14.07;8.23;;;2.00;99.90;;;;;;4880408;29;20055;-78
2022/02/10 00:55:46;;;;;;;18.45;9.27;;;2.00;99.90;;;;;;4897599;29;20553;-80
2022/02/10 00:58:20;;;;;;;19.85;10.95;;;2.00;99.90;;;;;;4897299;29;20036;-77
2022/02/10 01:12:06;;;;;;;26.10;14.75;;;2.00;99.90;;;;;;4897254;29;20044;-78
2022/02/10 01:30:20;;;;;;;17.85;10.05;;;2.10;99.90;;;;;;4910886;29;19915;-78
2022/02/10 01:32:49;;;;;;;;;;;2.00;99.90;;;;;;4892950;29;20028;-80
2022/02/10 01:35:20;;;;;;;15.90;8.02;;;2.00;99.90;;;;;;4897077;29;19911;-79
2022/02/10 01:37:46;;;;;;;18.73;8.90;;;2.00;99.90;;;;;;4906660;29;20028;-80
2022/02/10 02:04:19;;;;;;;10.63;4.10;;;2.80;99.90;;;;;;4905523;29;20075;-78
2022/02/10 02:06:47;;;;;;;9.00;3.78;;;2.80;99.90;;;;;;4902415;29;20042;-78
2022/02/10 02:09:16;;;;;;;9.80;3.22;;;2.80;99.90;;;;;;4900179;29;20553;-77
2022/02/10 02:11:43;;;;;;;9.38;3.80;;;2.80;99.90;;;;;;4883567;29;20088;-79
2022/02/10 02:14:13;;;;;;;9.07;3.10;;;2.70;99.90;;;;;;4900416;29;20044;-79
2022/02/10 02:16:46;;;;;;;8.98;3.15;;;2.60;99.90;;;;;;4900029;29;20489;-78
2022/02/10 02:19:15;;;;;;;11.10;5.57;;;2.60;99.90;;;;;;4884183;29;20172;-77
2022/02/10 02:21:42;;;;;;;6.78;3.95;;;2.70;99.90;;;;;;4900839;29;20032;-78
2022/02/10 02:24:09;;;;;;;6.43;3.72;;;2.80;99.90;;;;;;4885365;29;20024;-78
2022/02/10 02:26:35;;;;;;;10.40;4.00;;;2.70;99.90;;;;;;4891447;29;20120;-77
2022/02/10 02:29:05;;;;;;;;;;;2.80;99.90;;;;;;4895170;29;20100;-78
2022/02/10 02:31:39;;;;;;;6.43;4.18;;;2.70;99.90;;;;;;4883124;29;19907;-78
2022/02/10 03:06:40;;;;;;;17.25;6.10;;;1.90;99.90;;;;;;4896858;29;20033;-77
2022/02/10 03:09:20;;;;;;;17.63;7.90;;;1.90;99.90;;;;;;4880264;29;20476;-78
2022/02/10 03:11:46;;;;;;;22.20;7.10;;;1.80;99.90;;;;;;4881743;29;20040;-78
2022/02/10 03:14:19;;;;;;;;;;;1.80;99.90;;;;;;4882101;29;20032;-78
2022/02/10 04:08:02;;;;;;;9.48;5.10;;;1.60;99.90;;;;;;4897307;29;20024;-77
2022/02/10 04:26:28;;;;;;;;;;;1.50;99.90;;;;;;4898647;29;20422;-77
2022/02/10 04:32:04;;;;;;;18.90;10.07;;;1.50;99.90;;;;;;4895998;29;20025;-77
2022/02/10 04:59:13;;;;;;;20.77;10.13;;;1.10;99.90;;;;;;4897864;29;20123;-77
2022/02/10 05:18:26;;;;;;;7.22;3.58;;;1.10;99.90;;;;;;4894803;29;20079;-78
2022/02/10 05:24:27;;;;;;;6.63;3.28;;;1.10;99.90;;;;;;4893825;29;20107;-78
2022/02/10 05:34:18;;;;;;;;;;;1.00;99.90;;;;;;4893513;29;20112;-78
2022/02/10 05:36:45;;;;;;;16.23;7.45;;;0.90;99.90;;;;;;4900335;29;19917;-79
2022/02/10 05:39:16;;;;;;;13.57;6.43;;;0.90;99.90;;;;;;4901454;29;20514;-78
2022/02/10 05:47:37;;;;;;;;;;;0.70;99.90;;;;;;4900023;29;20054;-79
2022/02/10 06:56:39;;;;;;;;;;;3.40;99.90;;;;;;4897065;29;20033;-77
2022/02/10 07:04:37;;;;;;;;;;;6.20;99.90;;;;;;4900821;29;20071;-77
2022/02/10 07:10:15;;;;;;;14.93;8.15;;;7.10;99.90;;;;;;4905450;29;20119;-79
2022/02/10 07:48:20;;;;;;;20.02;12.88;;;11.10;93.20;;;;;;4895978;29;20039;-85
2022/02/10 08:56:07;;;;;;;6.57;4.07;;;15.70;63.90;;;;;;4893867;29;20120;-80
2022/02/10 08:59:00;;;;;;;7.85;4.88;;;16.30;61.90;;;;;;4893071;29;20036;-79
2022/02/10 09:11:45;;;;;;;8.43;6.13;;;16.70;57.40;;;;;;4893302;29;20822;-79
2022/02/10 10:00:35;;;;;;;5.75;3.25;;;15.10;56.30;;;;;;4833067;29;20042;-79
2022/02/10 10:03:23;;;;;;;5.30;2.85;;;14.40;58.20;;;;;;4834144;29;20549;-79
2022/02/10 10:05:58;;;;;;;6.50;3.63;;;13.60;60.20;;;;;;4865236;29;20052;-82
2022/02/10 10:14:58;;;;;;;5.05;3.13;;;13.40;67.50;;;;;;4891801;29;20034;-81
2022/02/10 10:19:55;;;;;;;7.80;2.60;;;13.20;68.40;;;;;;4892384;29;20046;-83
2022/02/10 11:38:11;;;;;;;10.25;6.20;;;11.40;95.70;;;;;;4900761;29;20413;-78
2022/02/10 14:09:58;;;;;;;8.55;4.63;;;12.60;73.00;;;;;;4893313;29;20128;-81
2022/02/10 14:17:08;;;;;;;7.72;4.45;;;12.40;74.40;;;;;;4894128;29;20493;-82
2022/02/10 14:19:47;;;;;;;7.35;4.63;;;12.40;74.40;;;;;;4893112;29;20592;-83
2022/02/10 14:27:26;;;;;;;7.78;4.45;;;12.20;76.10;;;;;;4893361;29;20615;-82
2022/02/10 14:29:52;;;;;;;;;;;12.10;76.00;;;;;;4876862;29;20155;-82
2022/02/10 14:32:21;;;;;;;7.35;4.50;;;12.20;76.30;;;;;;4892341;29;19915;-82
2022/02/10 14:34:49;;;;;;;8.68;4.28;;;12.10;76.90;;;;;;4876817;29;20051;-84
2022/02/10 14:37:39;;;;;;;7.50;5.18;;;12.00;77.50;;;;;;4892843;29;20549;-80
2022/02/10 14:40:23;;;;;;;13.68;5.20;;;11.90;77.80;;;;;;4876258;29;20143;-81
2022/02/10 15:13:21;;;;;;;21.23;14.48;;;11.30;85.00;;;;;;4904990;29;20048;-81
2022/02/10 15:29:39;;;;;;;16.48;9.82;;;10.80;91.10;;;;;;4909426;29;20031;-80
2022/02/10 15:48:51;;;;;;;24.65;14.43;;;10.10;94.80;;;;;;4907305;29;20092;-79
2022/02/10 16:17:26;;;;;;;55.38;24.70;;;8.90;99.90;;;;;;4912886;29;20092;-79
2022/02/10 16:19:53;;;;;;;43.13;21.23;;;8.80;99.90;;;;;;4896357;29;20084;-80
2022/02/10 16:24:49;;;;;;;;;;;8.40;99.90;;;;;;4913912;29;20036;-79
2022/02/10 16:27:23;;;;;;;57.05;28.88;;;8.30;99.90;;;;;;4897055;29;19918;-80
2022/02/10 16:29:57;;;;;;;103.00;48.60;;;8.20;99.90;;;;;;4896896;29;20033;-80
2022/02/10 16:32:22;;;;;;;99.75;47.58;;;8.00;99.90;;;;;;4895946;29;20031;-79
2022/02/10 16:34:48;;;;;;;126.45;59.05;;;8.00;99.90;;;;;;4911631;29;20033;-79
2022/02/10 16:37:14;;;;;;;;;;;7.90;99.90;;;;;;4895265;29;20040;-80
2022/02/10 16:39:41;;;;;;;87.95;48.42;;;7.90;99.90;;;;;;4894625;29;19927;-80
2022/02/10 16:42:10;;;;;;;61.10;35.85;;;7.80;99.90;;;;;;4893445;29;20044;-79
2022/02/10 16:44:37;;;;;;;50.47;28.52;;;7.70;99.90;;;;;;4910248;29;20057;-79
2022/02/10 16:47:04;;;;;;;57.78;31.92;;;7.60;99.90;;;;;;4893541;29;20021;-79
2022/02/10 16:49:30;;;;;;;55.15;30.52;;;7.50;99.90;;;;;;4916719;29;20033;-79
2022/02/10 16:51:56;;;;;;;44.90;26.45;;;7.30;99.90;;;;;;4914180;29;20103;-79
2022/02/10 16:55:07;;;;;;;44.78;23.05;;;7.30;99.90;;;;;;4905311;29;20037;-79
2022/02/10 16:57:36;;;;;;;51.00;26.70;;;7.20;99.90;;;;;;4906733;29;20040;-79
2022/02/10 17:01:11;;;;;;;52.63;29.17;;;7.10;99.90;;;;;;4890487;29;20052;-79
2022/02/10 17:32:14;;;;;;;115.60;63.53;;;6.30;99.90;;;;;;4890139;29;20084;-80
2022/02/10 17:43:29;;;;;;;;;;;6.10;99.90;;;;;;4907402;29;20092;-79
2022/02/10 17:53:40;;;;;;;41.75;26.80;;;6.00;99.90;;;;;;4890770;29;20036;-80
2022/02/10 17:56:06;;;;;;;56.17;32.83;;;5.90;99.90;;;;;;4890055;29;20513;-79
2022/02/10 17:58:32;;;;;;;57.97;33.50;;;5.80;99.90;;;;;;4906566;29;20032;-79
2022/02/10 18:00:59;;;;;;;;;;;5.60;99.90;;;;;;4907548;29;20166;-80
2022/02/10 18:03:26;;;;;;;99.15;45.78;;;5.50;99.90;;;;;;4889890;29;20002;-80
2022/02/10 18:08:35;;;;;;;158.50;74.85;;;5.30;99.90;;;;;;4918944;29;20108;-79
2022/02/10 18:16:15;;;;;;;157.75;74.15;;;5.10;99.90;;;;;;4905845;29;20032;-79
2022/02/10 18:18:49;;;;;;;132.40;64.35;;;5.20;99.90;;;;;;4917193;29;20039;-79
2022/02/10 18:26:18;;;;;;;56.90;30.92;;;4.90;99.90;;;;;;4900714;29;20116;-78
2022/02/10 19:09:45;;;;;;;67.38;34.03;;;4.20;99.90;;;;;;4903624;29;20486;-78
2022/02/10 19:12:22;;;;;;;47.08;27.10;;;4.10;99.90;;;;;;4900957;29;20052;-79
2022/02/10 19:14:56;;;;;;;;;;;4.10;99.90;;;;;;4885142;29;20028;-80
2022/02/10 19:17:25;;;;;;;35.22;21.00;;;4.10;99.90;;;;;;4885156;29;19907;-79
2022/02/10 19:19:51;;;;;;;68.72;36.70;;;4.00;99.90;;;;;;4885204;29;20036;-79
2022/02/10 19:22:18;;;;;;;;;;;4.00;99.90;;;;;;4902471;29;20588;-80
2022/02/10 19:24:44;;;;;;;65.63;37.85;;;4.00;99.90;;;;;;4885014;29;19907;-79
2022/02/10 19:27:09;;;;;;;;;;;3.90;99.90;;;;;;4885553;29;20043;-79
2022/02/10 19:29:35;;;;;;;60.28;28.60;;;3.90;99.90;;;;;;4885374;29;19942;-79
2022/02/10 19:32:01;;;;;;;;;;;3.90;99.90;;;;;;4886961;29;20040;-79
2022/02/10 19:34:32;;;;;;;57.22;30.75;;;3.80;99.90;;;;;;4886608;29;19911;-79
2022/02/10 19:36:58;;;;;;;63.13;34.35;;;3.80;99.90;;;;;;4886891;29;20029;-78
2022/02/10 19:39:25;;;;;;;;;;;3.70;99.90;;;;;;4887434;29;20060;-80
2022/02/10 19:41:53;;;;;;;;;;;3.60;99.90;;;;;;4905320;29;20411;-80
2022/02/10 19:44:18;;;;;;;154.52;67.50;;;3.60;99.90;;;;;;4910131;29;19911;-79
2022/02/10 19:46:44;;;;;;;;;;;3.60;99.90;;;;;;4917514;29;20016;-79
2022/02/10 19:49:19;;;;;;;95.00;47.13;;;3.50;99.90;;;;;;4902664;29;19913;-79
2022/02/10 19:51:46;;;;;;;82.32;42.00;;;3.60;99.90;;;;;;4900619;29;20029;-79
2022/02/10 19:54:14;;;;;;;80.43;39.08;;;3.60;99.90;;;;;;4884597;29;20028;-80
2022/02/10 19:56:40;;;;;;;107.60;51.85;;;3.60;99.90;;;;;;4901464;29;20505;-81
2022/02/10 19:59:07;;;;;;;56.30;27.67;;;3.60;99.90;;;;;;4900878;29;20039;-80
2022/02/10 20:01:33;;;;;;;32.83;16.85;;;3.60;99.90;;;;;;4901962;29;20032;-79
2022/02/10 20:04:03;;;;;;;;;;;3.50;99.90;;;;;;4902909;29;20041;-78
2022/02/10 20:06:29;;;;;;;37.13;19.35;;;3.50;99.90;;;;;;4900326;29;19934;-79
2022/02/10 20:08:54;;;;;;;;;;;3.40;99.90;;;;;;4885101;29;20036;-79
2022/02/10 20:11:20;;;;;;;29.98;17.55;;;3.40;99.90;;;;;;4901164;29;19911;-78
2022/02/10 20:13:46;;;;;;;50.15;27.48;;;3.30;99.90;;;;;;4901713;29;20039;-79
2022/02/10 20:16:13;;;;;;;;;;;3.30;99.90;;;;;;4886264;29;20110;-79
2022/02/10 20:18:39;;;;;;;60.35;31.83;;;3.20;99.90;;;;;;4886249;29;19914;-79
2022/02/10 20:21:05;;;;;;;64.93;29.88;;;3.20;99.90;;;;;;4885563;29;20037;-79
2022/02/10 20:23:33;;;;;;;70.28;37.42;;;3.20;99.90;;;;;;4903118;29;20031;-78
2022/02/10 20:26:01;;;;;;;96.43;49.17;;;3.20;99.90;;;;;;4886440;29;20059;-80
2022/02/10 20:28:28;;;;;;;96.45;52.22;;;3.20;99.90;;;;;;4904008;29;20023;-79
2022/02/10 20:30:55;;;;;;;224.35;94.80;;;3.10;99.90;;;;;;4886611;29;20096;-80
2022/02/10 20:33:23;;;;;;;;;;;3.20;99.90;;;;;;4886940;29;20037;-79
2022/02/10 20:35:53;;;;;;;227.75;95.78;;;3.20;99.90;;;;;;4886858;29;19911;-78
2022/02/10 20:38:20;;;;;;;222.27;95.50;;;3.20;99.90;;;;;;4887698;29;20088;-79
2022/02/10 20:40:53;;;;;;;233.63;99.47;;;3.20;99.90;;;;;;4905069;29;20115;-79
2022/02/10 20:43:19;;;;;;;156.30;69.40;;;3.20;99.90;;;;;;4916444;29;20033;-79
2022/02/10 20:45:52;;;;;;;;;;;3.10;99.90;;;;;;4901937;29;20040;-82
2022/02/10 20:48:18;;;;;;;220.43;95.70;;;3.10;99.90;;;;;;4890970;29;20386;-80
2022/02/10 20:50:44;;;;;;;;;;;3.10;99.90;;;;;;4906287;29;20064;-79
2022/02/10 20:53:09;;;;;;;115.25;53.30;;;3.00;99.90;;;;;;4905826;29;19907;-80
2022/02/10 20:55:35;;;;;;;93.25;44.85;;;3.00;99.90;;;;;;4888334;29;20032;-79
2022/02/10 20:58:00;;;;;;;79.22;40.30;;;3.00;99.90;;;;;;4889163;29;20028;-80
2022/02/10 21:00:30;;;;;;;;;;;2.90;99.90;;;;;;4889462;29;20131;-79
2022/02/10 21:02:56;;;;;;;68.35;33.80;;;2.80;99.90;;;;;;4906044;29;19941;-79
2022/02/10 21:05:30;;;;;;;;;;;2.80;99.90;;;;;;4888875;29;20033;-79
2022/02/10 21:08:25;;;;;;;54.83;26.50;;;2.80;99.90;;;;;;4888240;29;19907;-80
2022/02/10 21:10:51;;;;;;;58.28;30.70;;;2.90;99.90;;;;;;4905388;29;20088;-79
2022/02/10 21:13:17;;;;;;;;;;;3.00;99.90;;;;;;4893272;29;20008;-80
2022/02/10 21:15:46;;;;;;;65.90;31.23;;;3.00;99.90;;;;;;4915415;29;19918;-79
2022/02/10 21:18:13;;;;;;;61.58;30.52;;;3.00;99.90;;;;;;4887850;29;20500;-78
2022/02/10 21:20:39;;;;;;;66.22;34.33;;;3.00;99.90;;;;;;4903961;29;20037;-78
2022/02/10 21:23:30;;;;;;;;;;;3.00;99.90;;;;;;4904663;29;20041;-79
2022/02/10 21:25:56;;;;;;;61.08;31.70;;;3.00;99.90;;;;;;4904675;29;19907;-79
2022/02/10 21:28:27;;;;;;;61.35;32.70;;;2.90;99.90;;;;;;4888174;29;20055;-79
2022/02/10 21:30:57;;;;;;;60.95;34.15;;;2.80;99.90;;;;;;4886971;29;20033;-79
2022/02/10 21:38:23;;;;;;;69.88;34.35;;;2.80;99.90;;;;;;4899589;29;20033;-78
2022/02/10 21:54:59;;;;;;;58.25;27.55;;;2.90;99.90;;;;;;4901368;29;20127;-79
2022/02/10 21:58:03;;;;;;;68.15;29.52;;;2.90;99.90;;;;;;4899820;29;20044;-79
2022/02/10 22:00:36;;;;;;;68.45;29.40;;;3.00;99.90;;;;;;4899507;29;20633;-81
2022/02/10 22:21:19;;;;;;;79.43;29.50;;;3.30;99.90;;;;;;4899659;29;20075;-79
2022/02/10 22:23:47;;;;;;;55.22;21.90;;;3.30;99.90;;;;;;4901695;29;20025;-79
2022/02/10 22:26:23;;;;;;;37.00;16.52;;;3.30;99.90;;;;;;4898303;29;20033;-79
2022/02/10 22:31:37;;;;;;;140.93;57.20;;;3.30;99.90;;;;;;4899746;29;20032;-79
2022/02/10 22:36:53;;;;;;;119.53;50.63;;;3.30;99.90;;;;;;4897415;29;20055;-77
2022/02/10 22:39:22;;;;;;;123.60;46.65;;;3.20;99.90;;;;;;4897733;29;20040;-78
2022/02/10 22:41:48;;;;;;;106.38;46.97;;;3.10;99.90;;;;;;4884337;29;20111;-78
2022/02/10 22:44:14;;;;;;;;;;;3.10;99.90;;;;;;4906381;29;20075;-77
2022/02/10 22:46:41;;;;;;;79.85;34.90;;;3.00;99.90;;;;;;4880317;29;19912;-77
2022/02/10 22:49:06;;;;;;;90.03;32.75;;;3.00;99.90;;;;;;4878429;29;20325;-79
2022/02/10 22:51:34;;;;;;;;;;;2.90;99.90;;;;;;4878895;29;20028;-78
2022/02/10 22:54:00;;;;;;;90.50;31.58;;;2.90;99.90;;;;;;4878847;29;19914;-78
2022/02/10 22:56:29;;;;;;;94.95;31.20;;;2.90;99.90;;;;;;4896314;29;20032;-77
2022/02/10 22:59:04;;;;;;;101.47;32.55;;;2.90;99.90;;;;;;4881602;29;20032;-78
2022/02/10 23:01:30;;;;;;;56.72;19.67;;;2.80;99.90;;;;;;4879853;29;20045;-78
2022/02/10 23:03:56;;;;;;;29.10;13.05;;;2.80;99.90;;;;;;4880998;29;20821;-80
2022/02/10 23:06:22;;;;;;;;;;;2.80;99.90;;;;;;4900646;29;20027;-78
2022/02/10 23:08:48;;;;;;;33.90;16.75;;;2.70;99.90;;;;;;4882712;29;19907;-78
2022/02/10 23:11:15;;;;;;;40.05;17.48;;;2.70;99.90;;;;;;4901447;29;20065;-79
2022/02/10 23:13:46;;;;;;;35.42;18.65;;;2.70;99.90;;;;;;4906697;29;20039;-81
2022/02/10 23:16:14;;;;;;;45.28;24.00;;;2.60;99.90;;;;;;4910647;29;20024;-82
2022/02/10 23:18:41;;;;;;;37.88;19.48;;;2.60;99.90;;;;;;4912559;29;20024;-80
2022/02/10 23:21:10;;;;;;;42.40;22.58;;;2.50;99.90;;;;;;4915512;29;20028;-81
2022/02/10 23:23:38;;;;;;;38.45;20.02;;;2.60;99.90;;;;;;4917380;29;20093;-80
2022/02/10 23:26:06;;;;;;;44.67;21.23;;;2.50;99.90;;;;;;4894976;29;20060;-80
2022/02/10 23:28:36;;;;;;;43.40;23.02;;;2.50;99.90;;;;;;4910970;29;20029;-80
2022/02/10 23:31:03;;;;;;;64.97;28.10;;;2.40;99.90;;;;;;4910594;29;20040;-80
2022/02/10 23:33:40;;;;;;;70.13;30.60;;;2.40;99.90;;;;;;4911234;29;20031;-81
2022/02/10 23:39:00;;;;;;;66.88;30.85;;;2.30;99.90;;;;;;4911451;29;20422;-80
2022/02/10 23:44:02;;;;;;;47.03;21.30;;;2.20;99.90;;;;;;4911768;29;20549;-80
2022/02/10 23:46:28;;;;;;;34.67;17.60;;;2.10;99.90;;;;;;4911270;29;20043;-80
2022/02/10 23:48:55;;;;;;;;;;;2.10;99.90;;;;;;4912042;29;20033;-80
2022/02/10 23:51:25;;;;;;;24.23;12.88;;;2.10;99.90;;;;;;4912819;29;19911;-80
2022/02/10 23:53:51;;;;;;;26.95;13.75;;;2.10;99.90;;;;;;4911810;29;20040;-80
2022/02/10 23:56:19;;;;;;;;;;;2.00;99.90;;;;;;4897052;29;20030;-80
2022/02/10 23:59:06;;;;;;;23.85;11.95;;;2.00;99.90;;;;;;4913237;29;19907;-80
